sensor_id;sensor_type;location;lat;lon;timestamp;P1;durP1;ratioP1;P2;durP2;ratioP2
63536;SDS011;49686;51.880;5.632;2023-07-22T00:00:30;16.85;;;9.40;;
63536;SDS011;49686;51.880;5.632;2023-07-22T00:02:57;16.00;;;9.93;;
63536;SDS011;49686;51.880;5.632;2023-07-22T00:05:24;14.70;;;9.70;;
63536;SDS011;49686;51.880;5.632;2023-07-22T00:07:51;16.75;;;10.02;;
63536;SDS011;49686;51.880;5.632;2023-07-22T00:10:19;16.02;;;9.95;;
63536;SDS011;49686;51.880;5.632;2023-07-22T00:12:48;15.93;;;10.13;;
63536;SDS011;49686;51.880;5.632;2023-07-22T00:15:14;14.53;;;9.40;;
63536;SDS011;49686;51.880;5.632;2023-07-22T00:17:41;15.82;;;9.88;;
63536;SDS011;49686;51.880;5.632;2023-07-22T00:20:09;17.23;;;10.07;;
63536;SDS011;49686;51.880;5.632;2023-07-22T00:22:37;17.13;;;9.93;;
63536;SDS011;49686;51.880;5.632;2023-07-22T00:25:04;16.60;;;10.35;;
63536;SDS011;49686;51.880;5.632;2023-07-22T00:27:32;15.52;;;9.80;;
63536;SDS011;49686;51.880;5.632;2023-07-22T00:30:00;19.35;;;9.65;;
63536;SDS011;49686;51.880;5.632;2023-07-22T00:32:28;17.00;;;9.52;;
63536;SDS011;49686;51.880;5.632;2023-07-22T00:34:54;17.23;;;11.23;;
63536;SDS011;49686;51.880;5.632;2023-07-22T00:37:21;17.67;;;10.25;;
63536;SDS011;49686;51.880;5.632;2023-07-22T00:39:48;18.88;;;11.18;;
63536;SDS011;49686;51.880;5.632;2023-07-22T00:42:15;19.58;;;11.68;;
63536;SDS011;49686;51.880;5.632;2023-07-22T00:44:42;21.05;;;11.85;;
63536;SDS011;49686;51.880;5.632;2023-07-22T00:47:11;27.67;;;13.45;;
63536;SDS011;49686;51.880;5.632;2023-07-22T00:49:38;21.13;;;12.57;;
63536;SDS011;49686;51.880;5.632;2023-07-22T00:52:05;23.00;;;13.23;;
63536;SDS011;49686;51.880;5.632;2023-07-22T00:54:32;23.42;;;12.93;;
63536;SDS011;49686;51.880;5.632;2023-07-22T00:57:00;21.48;;;12.55;;
63536;SDS011;49686;51.880;5.632;2023-07-22T00:59:27;22.60;;;12.15;;
63536;SDS011;49686;51.880;5.632;2023-07-22T01:01:54;19.80;;;12.65;;
63536;SDS011;49686;51.880;5.632;2023-07-22T01:04:25;23.27;;;13.15;;
63536;SDS011;49686;51.880;5.632;2023-07-22T01:06:52;23.30;;;14.15;;
63536;SDS011;49686;51.880;5.632;2023-07-22T01:09:19;23.42;;;13.32;;
63536;SDS011;49686;51.880;5.632;2023-07-22T01:11:47;22.98;;;13.02;;
63536;SDS011;49686;51.880;5.632;2023-07-22T01:14:13;23.45;;;13.80;;
63536;SDS011;49686;51.880;5.632;2023-07-22T01:16:40;23.27;;;13.02;;
63536;SDS011;49686;51.880;5.632;2023-07-22T01:19:07;20.65;;;12.82;;
63536;SDS011;49686;51.880;5.632;2023-07-22T01:21:38;25.00;;;12.70;;
63536;SDS011;49686;51.880;5.632;2023-07-22T01:24:08;25.67;;;13.45;;
63536;SDS011;49686;51.880;5.632;2023-07-22T01:26:35;19.00;;;12.77;;
63536;SDS011;49686;51.880;5.632;2023-07-22T01:29:03;21.25;;;12.95;;
63536;SDS011;49686;51.880;5.632;2023-07-22T01:31:30;21.17;;;12.05;;
63536;SDS011;49686;51.880;5.632;2023-07-22T01:34:00;23.88;;;13.15;;
63536;SDS011;49686;51.880;5.632;2023-07-22T01:36:27;23.58;;;13.10;;
63536;SDS011;49686;51.880;5.632;2023-07-22T01:38:54;22.85;;;12.68;;
63536;SDS011;49686;51.880;5.632;2023-07-22T01:41:22;24.73;;;12.50;;
63536;SDS011;49686;51.880;5.632;2023-07-22T01:43:49;21.33;;;11.50;;
63536;SDS011;49686;51.880;5.632;2023-07-22T01:46:15;20.63;;;11.60;;
63536;SDS011;49686;51.880;5.632;2023-07-22T01:48:42;22.55;;;12.48;;
63536;SDS011;49686;51.880;5.632;2023-07-22T01:51:09;18.45;;;11.05;;
63536;SDS011;49686;51.880;5.632;2023-07-22T01:53:36;18.10;;;11.70;;
63536;SDS011;49686;51.880;5.632;2023-07-22T01:56:03;21.45;;;11.10;;
63536;SDS011;49686;51.880;5.632;2023-07-22T01:58:31;18.80;;;11.18;;
63536;SDS011;49686;51.880;5.632;2023-07-22T02:00:58;20.75;;;11.50;;
63536;SDS011;49686;51.880;5.632;2023-07-22T02:03:25;20.27;;;11.18;;
63536;SDS011;49686;51.880;5.632;2023-07-22T02:05:52;22.55;;;12.07;;
63536;SDS011;49686;51.880;5.632;2023-07-22T02:08:19;18.98;;;11.90;;
63536;SDS011;49686;51.880;5.632;2023-07-22T02:10:46;20.77;;;11.27;;
63536;SDS011;49686;51.880;5.632;2023-07-22T02:13:13;23.55;;;12.38;;
63536;SDS011;49686;51.880;5.632;2023-07-22T02:15:42;21.02;;;11.85;;
63536;SDS011;49686;51.880;5.632;2023-07-22T02:20:35;21.30;;;11.88;;
63536;SDS011;49686;51.880;5.632;2023-07-22T02:23:02;17.63;;;10.07;;
63536;SDS011;49686;51.880;5.632;2023-07-22T02:25:29;20.17;;;10.95;;
63536;SDS011;49686;51.880;5.632;2023-07-22T02:27:56;22.52;;;12.10;;
63536;SDS011;49686;51.880;5.632;2023-07-22T02:30:23;25.38;;;12.30;;
63536;SDS011;49686;51.880;5.632;2023-07-22T02:32:51;26.05;;;13.88;;
63536;SDS011;49686;51.880;5.632;2023-07-22T02:35:18;27.63;;;13.55;;
63536;SDS011;49686;51.880;5.632;2023-07-22T02:37:45;27.33;;;12.30;;
63536;SDS011;49686;51.880;5.632;2023-07-22T02:40:11;23.63;;;12.98;;
63536;SDS011;49686;51.880;5.632;2023-07-22T02:42:38;22.52;;;12.55;;
63536;SDS011;49686;51.880;5.632;2023-07-22T02:45:06;25.00;;;12.57;;
63536;SDS011;49686;51.880;5.632;2023-07-22T02:47:34;26.27;;;13.30;;
63536;SDS011;49686;51.880;5.632;2023-07-22T02:50:02;27.42;;;14.00;;
63536;SDS011;49686;51.880;5.632;2023-07-22T02:52:29;27.65;;;14.38;;
63536;SDS011;49686;51.880;5.632;2023-07-22T02:55:06;24.60;;;13.35;;
63536;SDS011;49686;51.880;5.632;2023-07-22T02:57:34;25.77;;;14.25;;
63536;SDS011;49686;51.880;5.632;2023-07-22T03:00:02;25.23;;;12.80;;
63536;SDS011;49686;51.880;5.632;2023-07-22T03:02:29;29.05;;;12.90;;
63536;SDS011;49686;51.880;5.632;2023-07-22T03:04:57;25.00;;;13.57;;
63536;SDS011;49686;51.880;5.632;2023-07-22T03:07:25;25.30;;;13.25;;
63536;SDS011;49686;51.880;5.632;2023-07-22T03:09:52;30.02;;;13.52;;
63536;SDS011;49686;51.880;5.632;2023-07-22T03:12:19;29.65;;;13.23;;
63536;SDS011;49686;51.880;5.632;2023-07-22T03:14:46;29.17;;;14.18;;
63536;SDS011;49686;51.880;5.632;2023-07-22T03:17:12;29.95;;;15.15;;
63536;SDS011;49686;51.880;5.632;2023-07-22T03:19:39;28.83;;;14.32;;
63536;SDS011;49686;51.880;5.632;2023-07-22T03:22:06;29.35;;;14.20;;
63536;SDS011;49686;51.880;5.632;2023-07-22T03:24:34;34.22;;;15.02;;
63536;SDS011;49686;51.880;5.632;2023-07-22T03:27:01;34.03;;;15.30;;
63536;SDS011;49686;51.880;5.632;2023-07-22T03:29:28;31.13;;;14.60;;
63536;SDS011;49686;51.880;5.632;2023-07-22T03:31:55;31.63;;;14.60;;
63536;SDS011;49686;51.880;5.632;2023-07-22T03:34:22;27.10;;;13.68;;
63536;SDS011;49686;51.880;5.632;2023-07-22T03:36:49;31.00;;;14.50;;
63536;SDS011;49686;51.880;5.632;2023-07-22T03:39:15;29.70;;;13.23;;
63536;SDS011;49686;51.880;5.632;2023-07-22T03:41:43;25.65;;;13.10;;
63536;SDS011;49686;51.880;5.632;2023-07-22T03:44:10;32.30;;;14.80;;
63536;SDS011;49686;51.880;5.632;2023-07-22T03:46:37;31.52;;;15.35;;
63536;SDS011;49686;51.880;5.632;2023-07-22T03:49:04;32.83;;;15.25;;
63536;SDS011;49686;51.880;5.632;2023-07-22T03:51:32;33.90;;;15.10;;
63536;SDS011;49686;51.880;5.632;2023-07-22T03:53:59;30.77;;;14.48;;
63536;SDS011;49686;51.880;5.632;2023-07-22T03:56:26;31.08;;;14.50;;
63536;SDS011;49686;51.880;5.632;2023-07-22T03:58:55;29.58;;;13.25;;
63536;SDS011;49686;51.880;5.632;2023-07-22T04:01:22;24.33;;;12.50;;
63536;SDS011;49686;51.880;5.632;2023-07-22T04:03:49;24.63;;;12.07;;
63536;SDS011;49686;51.880;5.632;2023-07-22T04:06:16;25.30;;;12.80;;
63536;SDS011;49686;51.880;5.632;2023-07-22T04:08:42;25.13;;;12.38;;
63536;SDS011;49686;51.880;5.632;2023-07-22T04:11:09;22.63;;;11.35;;
63536;SDS011;49686;51.880;5.632;2023-07-22T04:13:36;25.75;;;12.60;;
63536;SDS011;49686;51.880;5.632;2023-07-22T04:16:04;23.20;;;11.85;;
63536;SDS011;49686;51.880;5.632;2023-07-22T04:18:31;25.50;;;11.90;;
63536;SDS011;49686;51.880;5.632;2023-07-22T04:20:58;25.23;;;12.93;;
63536;SDS011;49686;51.880;5.632;2023-07-22T04:23:25;27.15;;;13.38;;
63536;SDS011;49686;51.880;5.632;2023-07-22T04:25:52;28.40;;;13.23;;
63536;SDS011;49686;51.880;5.632;2023-07-22T04:28:19;24.85;;;13.05;;
63536;SDS011;49686;51.880;5.632;2023-07-22T04:30:54;27.92;;;13.30;;
63536;SDS011;49686;51.880;5.632;2023-07-22T04:33:23;25.77;;;12.60;;
63536;SDS011;49686;51.880;5.632;2023-07-22T04:35:50;26.73;;;12.68;;
63536;SDS011;49686;51.880;5.632;2023-07-22T04:38:19;26.27;;;13.23;;
63536;SDS011;49686;51.880;5.632;2023-07-22T04:40:46;22.33;;;11.35;;
63536;SDS011;49686;51.880;5.632;2023-07-22T04:43:13;22.63;;;12.00;;
63536;SDS011;49686;51.880;5.632;2023-07-22T04:45:39;19.40;;;11.45;;
63536;SDS011;49686;51.880;5.632;2023-07-22T04:48:06;23.02;;;11.90;;
63536;SDS011;49686;51.880;5.632;2023-07-22T04:50:34;23.58;;;12.27;;
63536;SDS011;49686;51.880;5.632;2023-07-22T04:53:01;23.85;;;12.32;;
63536;SDS011;49686;51.880;5.632;2023-07-22T04:55:28;24.63;;;12.57;;
63536;SDS011;49686;51.880;5.632;2023-07-22T04:57:55;25.10;;;13.40;;
63536;SDS011;49686;51.880;5.632;2023-07-22T05:00:22;22.17;;;12.88;;
63536;SDS011;49686;51.880;5.632;2023-07-22T05:02:48;26.83;;;13.45;;
63536;SDS011;49686;51.880;5.632;2023-07-22T05:05:16;25.80;;;12.25;;
63536;SDS011;49686;51.880;5.632;2023-07-22T05:07:44;22.27;;;11.90;;
63536;SDS011;49686;51.880;5.632;2023-07-22T05:10:11;25.25;;;13.00;;
63536;SDS011;49686;51.880;5.632;2023-07-22T05:12:38;27.30;;;13.55;;
63536;SDS011;49686;51.880;5.632;2023-07-22T05:15:09;25.58;;;13.57;;
63536;SDS011;49686;51.880;5.632;2023-07-22T05:17:36;25.90;;;13.65;;
63536;SDS011;49686;51.880;5.632;2023-07-22T05:20:04;27.58;;;15.23;;
63536;SDS011;49686;51.880;5.632;2023-07-22T05:22:31;25.98;;;13.60;;
63536;SDS011;49686;51.880;5.632;2023-07-22T05:25:03;19.67;;;11.43;;
63536;SDS011;49686;51.880;5.632;2023-07-22T05:27:30;20.50;;;11.50;;
63536;SDS011;49686;51.880;5.632;2023-07-22T05:29:57;19.80;;;11.48;;
63536;SDS011;49686;51.880;5.632;2023-07-22T05:32:24;21.10;;;12.27;;
63536;SDS011;49686;51.880;5.632;2023-07-22T05:34:59;18.67;;;11.55;;
63536;SDS011;49686;51.880;5.632;2023-07-22T05:37:26;21.73;;;12.05;;
63536;SDS011;49686;51.880;5.632;2023-07-22T05:39:53;21.08;;;12.63;;
63536;SDS011;49686;51.880;5.632;2023-07-22T05:42:21;20.92;;;12.00;;
63536;SDS011;49686;51.880;5.632;2023-07-22T05:44:48;18.92;;;11.80;;
63536;SDS011;49686;51.880;5.632;2023-07-22T05:47:15;20.60;;;11.70;;
63536;SDS011;49686;51.880;5.632;2023-07-22T05:49:44;22.27;;;12.43;;
63536;SDS011;49686;51.880;5.632;2023-07-22T05:52:11;19.90;;;12.18;;
63536;SDS011;49686;51.880;5.632;2023-07-22T05:54:38;18.35;;;10.23;;
63536;SDS011;49686;51.880;5.632;2023-07-22T05:57:06;20.07;;;11.90;;
63536;SDS011;49686;51.880;5.632;2023-07-22T05:59:34;19.67;;;10.80;;
63536;SDS011;49686;51.880;5.632;2023-07-22T06:02:01;16.65;;;11.07;;
63536;SDS011;49686;51.880;5.632;2023-07-22T06:04:28;17.92;;;10.63;;
63536;SDS011;49686;51.880;5.632;2023-07-22T06:06:55;18.40;;;11.35;;
63536;SDS011;49686;51.880;5.632;2023-07-22T06:09:22;15.85;;;9.93;;
63536;SDS011;49686;51.880;5.632;2023-07-22T06:11:49;17.58;;;10.25;;
63536;SDS011;49686;51.880;5.632;2023-07-22T06:14:18;16.98;;;10.18;;
63536;SDS011;49686;51.880;5.632;2023-07-22T06:16:46;19.50;;;12.13;;
63536;SDS011;49686;51.880;5.632;2023-07-22T06:19:14;19.42;;;12.55;;
63536;SDS011;49686;51.880;5.632;2023-07-22T06:21:40;19.85;;;11.30;;
63536;SDS011;49686;51.880;5.632;2023-07-22T06:24:08;17.25;;;10.82;;
63536;SDS011;49686;51.880;5.632;2023-07-22T06:26:35;21.88;;;12.32;;
63536;SDS011;49686;51.880;5.632;2023-07-22T06:29:03;20.57;;;12.07;;
63536;SDS011;49686;51.880;5.632;2023-07-22T06:31:29;20.02;;;11.68;;
63536;SDS011;49686;51.880;5.632;2023-07-22T06:33:58;21.30;;;11.32;;
63536;SDS011;49686;51.880;5.632;2023-07-22T06:36:25;22.00;;;11.48;;
63536;SDS011;49686;51.880;5.632;2023-07-22T06:38:52;17.63;;;10.10;;
63536;SDS011;49686;51.880;5.632;2023-07-22T06:41:19;16.13;;;10.50;;
63536;SDS011;49686;51.880;5.632;2023-07-22T06:43:46;18.58;;;10.38;;
63536;SDS011;49686;51.880;5.632;2023-07-22T06:46:13;19.65;;;11.23;;
63536;SDS011;49686;51.880;5.632;2023-07-22T06:48:40;20.02;;;11.00;;
63536;SDS011;49686;51.880;5.632;2023-07-22T06:51:08;21.00;;;12.48;;
63536;SDS011;49686;51.880;5.632;2023-07-22T06:53:35;19.13;;;10.98;;
63536;SDS011;49686;51.880;5.632;2023-07-22T06:56:02;18.85;;;10.55;;
63536;SDS011;49686;51.880;5.632;2023-07-22T06:58:29;15.55;;;9.68;;
63536;SDS011;49686;51.880;5.632;2023-07-22T07:00:56;17.67;;;11.32;;
63536;SDS011;49686;51.880;5.632;2023-07-22T07:03:23;18.48;;;11.18;;
63536;SDS011;49686;51.880;5.632;2023-07-22T07:05:53;17.48;;;11.07;;
63536;SDS011;49686;51.880;5.632;2023-07-22T07:08:21;20.23;;;9.90;;
63536;SDS011;49686;51.880;5.632;2023-07-22T07:10:48;15.82;;;10.35;;
63536;SDS011;49686;51.880;5.632;2023-07-22T07:13:15;16.40;;;9.90;;
63536;SDS011;49686;51.880;5.632;2023-07-22T07:15:45;17.00;;;10.95;;
63536;SDS011;49686;51.880;5.632;2023-07-22T07:18:13;16.75;;;10.68;;
63536;SDS011;49686;51.880;5.632;2023-07-22T07:20:39;20.98;;;11.30;;
63536;SDS011;49686;51.880;5.632;2023-07-22T07:23:06;19.80;;;9.95;;
63536;SDS011;49686;51.880;5.632;2023-07-22T07:25:34;16.38;;;9.35;;
63536;SDS011;49686;51.880;5.632;2023-07-22T07:28:01;17.30;;;11.52;;
63536;SDS011;49686;51.880;5.632;2023-07-22T07:30:28;15.90;;;8.85;;
63536;SDS011;49686;51.880;5.632;2023-07-22T07:32:55;19.38;;;10.18;;
63536;SDS011;49686;51.880;5.632;2023-07-22T07:35:22;15.27;;;8.77;;
63536;SDS011;49686;51.880;5.632;2023-07-22T07:37:49;16.73;;;8.93;;
63536;SDS011;49686;51.880;5.632;2023-07-22T07:40:16;17.00;;;8.85;;
63536;SDS011;49686;51.880;5.632;2023-07-22T07:42:44;11.77;;;7.18;;
63536;SDS011;49686;51.880;5.632;2023-07-22T07:45:11;16.48;;;8.93;;
63536;SDS011;49686;51.880;5.632;2023-07-22T07:47:38;18.00;;;8.82;;
63536;SDS011;49686;51.880;5.632;2023-07-22T07:50:06;13.75;;;8.73;;
63536;SDS011;49686;51.880;5.632;2023-07-22T07:52:33;15.70;;;9.48;;
63536;SDS011;49686;51.880;5.632;2023-07-22T07:57:29;16.20;;;8.95;;
63536;SDS011;49686;51.880;5.632;2023-07-22T07:59:57;14.82;;;9.00;;
63536;SDS011;49686;51.880;5.632;2023-07-22T08:02:24;13.57;;;8.55;;
63536;SDS011;49686;51.880;5.632;2023-07-22T08:04:51;15.40;;;9.00;;
63536;SDS011;49686;51.880;5.632;2023-07-22T08:07:17;10.32;;;6.78;;
63536;SDS011;49686;51.880;5.632;2023-07-22T08:09:46;12.05;;;8.32;;
63536;SDS011;49686;51.880;5.632;2023-07-22T08:12:12;16.42;;;8.77;;
63536;SDS011;49686;51.880;5.632;2023-07-22T08:14:39;15.45;;;9.70;;
63536;SDS011;49686;51.880;5.632;2023-07-22T08:17:07;14.48;;;8.15;;
63536;SDS011;49686;51.880;5.632;2023-07-22T08:19:34;14.23;;;8.82;;
63536;SDS011;49686;51.880;5.632;2023-07-22T08:22:01;12.48;;;8.57;;
63536;SDS011;49686;51.880;5.632;2023-07-22T08:24:28;14.32;;;8.48;;
63536;SDS011;49686;51.880;5.632;2023-07-22T08:26:55;13.35;;;8.57;;
63536;SDS011;49686;51.880;5.632;2023-07-22T08:29:22;13.95;;;9.02;;
63536;SDS011;49686;51.880;5.632;2023-07-22T08:31:49;13.85;;;8.50;;
63536;SDS011;49686;51.880;5.632;2023-07-22T08:34:17;10.55;;;6.28;;
63536;SDS011;49686;51.880;5.632;2023-07-22T08:36:44;11.55;;;7.43;;
63536;SDS011;49686;51.880;5.632;2023-07-22T08:39:10;15.23;;;7.90;;
63536;SDS011;49686;51.880;5.632;2023-07-22T08:41:37;15.73;;;8.82;;
63536;SDS011;49686;51.880;5.632;2023-07-22T08:44:05;12.60;;;7.13;;
63536;SDS011;49686;51.880;5.632;2023-07-22T08:46:34;11.15;;;7.93;;
63536;SDS011;49686;51.880;5.632;2023-07-22T08:49:02;13.43;;;7.18;;
63536;SDS011;49686;51.880;5.632;2023-07-22T08:51:33;12.85;;;7.63;;
63536;SDS011;49686;51.880;5.632;2023-07-22T08:54:01;14.40;;;8.02;;
63536;SDS011;49686;51.880;5.632;2023-07-22T08:56:37;12.82;;;7.28;;
63536;SDS011;49686;51.880;5.632;2023-07-22T08:59:05;11.52;;;7.07;;
63536;SDS011;49686;51.880;5.632;2023-07-22T09:01:33;14.52;;;6.90;;
63536;SDS011;49686;51.880;5.632;2023-07-22T09:04:00;10.27;;;6.32;;
63536;SDS011;49686;51.880;5.632;2023-07-22T09:06:27;12.75;;;6.32;;
63536;SDS011;49686;51.880;5.632;2023-07-22T09:08:56;10.70;;;6.25;;
63536;SDS011;49686;51.880;5.632;2023-07-22T09:11:24;11.77;;;6.57;;
63536;SDS011;49686;51.880;5.632;2023-07-22T09:13:52;10.63;;;6.85;;
63536;SDS011;49686;51.880;5.632;2023-07-22T09:16:20;10.10;;;6.82;;
63536;SDS011;49686;51.880;5.632;2023-07-22T09:18:48;13.05;;;6.75;;
63536;SDS011;49686;51.880;5.632;2023-07-22T09:21:15;10.63;;;5.78;;
63536;SDS011;49686;51.880;5.632;2023-07-22T09:23:41;10.50;;;5.85;;
63536;SDS011;49686;51.880;5.632;2023-07-22T09:26:10;10.90;;;6.72;;
63536;SDS011;49686;51.880;5.632;2023-07-22T09:28:53;10.68;;;6.05;;
63536;SDS011;49686;51.880;5.632;2023-07-22T09:31:20;9.52;;;6.25;;
63536;SDS011;49686;51.880;5.632;2023-07-22T09:33:50;9.77;;;5.27;;
63536;SDS011;49686;51.880;5.632;2023-07-22T09:38:44;10.27;;;5.70;;
63536;SDS011;49686;51.880;5.632;2023-07-22T09:41:12;10.80;;;6.18;;
63536;SDS011;49686;51.880;5.632;2023-07-22T09:43:39;11.50;;;6.70;;
63536;SDS011;49686;51.880;5.632;2023-07-22T09:46:06;16.08;;;6.95;;
63536;SDS011;49686;51.880;5.632;2023-07-22T09:48:51;9.77;;;5.15;;
63536;SDS011;49686;51.880;5.632;2023-07-22T09:51:18;13.07;;;7.18;;
63536;SDS011;49686;51.880;5.632;2023-07-22T09:53:46;7.32;;;5.18;;
63536;SDS011;49686;51.880;5.632;2023-07-22T09:56:14;10.02;;;4.88;;
63536;SDS011;49686;51.880;5.632;2023-07-22T09:58:41;9.05;;;5.53;;
63536;SDS011;49686;51.880;5.632;2023-07-22T10:01:11;8.95;;;5.95;;
63536;SDS011;49686;51.880;5.632;2023-07-22T10:03:42;8.90;;;5.20;;
63536;SDS011;49686;51.880;5.632;2023-07-22T10:06:11;8.07;;;4.85;;
63536;SDS011;49686;51.880;5.632;2023-07-22T10:08:39;9.40;;;5.43;;
63536;SDS011;49686;51.880;5.632;2023-07-22T10:11:07;11.02;;;5.00;;
63536;SDS011;49686;51.880;5.632;2023-07-22T10:13:37;8.82;;;4.65;;
63536;SDS011;49686;51.880;5.632;2023-07-22T10:18:32;7.15;;;4.68;;
63536;SDS011;49686;51.880;5.632;2023-07-22T10:21:00;7.53;;;4.20;;
63536;SDS011;49686;51.880;5.632;2023-07-22T10:23:27;7.47;;;5.05;;
63536;SDS011;49686;51.880;5.632;2023-07-22T10:25:57;7.20;;;4.05;;
63536;SDS011;49686;51.880;5.632;2023-07-22T10:28:25;8.75;;;4.55;;
63536;SDS011;49686;51.880;5.632;2023-07-22T10:30:53;9.50;;;5.20;;
63536;SDS011;49686;51.880;5.632;2023-07-22T10:33:20;8.02;;;4.70;;
63536;SDS011;49686;51.880;5.632;2023-07-22T10:36:01;10.88;;;4.70;;
63536;SDS011;49686;51.880;5.632;2023-07-22T10:38:29;8.15;;;4.10;;
63536;SDS011;49686;51.880;5.632;2023-07-22T10:40:56;6.65;;;4.05;;
63536;SDS011;49686;51.880;5.632;2023-07-22T10:43:24;7.53;;;3.60;;
63536;SDS011;49686;51.880;5.632;2023-07-22T10:45:52;8.10;;;4.00;;
63536;SDS011;49686;51.880;5.632;2023-07-22T10:48:22;4.70;;;3.42;;
63536;SDS011;49686;51.880;5.632;2023-07-22T10:50:52;10.00;;;4.20;;
63536;SDS011;49686;51.880;5.632;2023-07-22T10:53:20;6.18;;;3.72;;
63536;SDS011;49686;51.880;5.632;2023-07-22T10:56:03;5.32;;;3.47;;
63536;SDS011;49686;51.880;5.632;2023-07-22T10:58:32;7.35;;;4.05;;
63536;SDS011;49686;51.880;5.632;2023-07-22T11:04:09;6.97;;;3.80;;
63536;SDS011;49686;51.880;5.632;2023-07-22T11:06:38;6.88;;;3.38;;
63536;SDS011;49686;51.880;5.632;2023-07-22T11:09:06;4.05;;;2.90;;
63536;SDS011;49686;51.880;5.632;2023-07-22T11:11:36;5.65;;;3.25;;
63536;SDS011;49686;51.880;5.632;2023-07-22T11:14:14;7.55;;;3.55;;
63536;SDS011;49686;51.880;5.632;2023-07-22T11:16:42;7.22;;;3.50;;
63536;SDS011;49686;51.880;5.632;2023-07-22T11:19:13;8.18;;;3.08;;
63536;SDS011;49686;51.880;5.632;2023-07-22T11:21:41;5.95;;;2.60;;
63536;SDS011;49686;51.880;5.632;2023-07-22T11:24:08;5.88;;;3.60;;
63536;SDS011;49686;51.880;5.632;2023-07-22T11:26:35;6.65;;;3.50;;
63536;SDS011;49686;51.880;5.632;2023-07-22T11:29:03;5.25;;;3.10;;
63536;SDS011;49686;51.880;5.632;2023-07-22T11:31:31;6.38;;;3.60;;
63536;SDS011;49686;51.880;5.632;2023-07-22T11:33:58;6.07;;;3.45;;
63536;SDS011;49686;51.880;5.632;2023-07-22T11:36:26;6.85;;;3.15;;
63536;SDS011;49686;51.880;5.632;2023-07-22T11:38:54;4.65;;;2.70;;
63536;SDS011;49686;51.880;5.632;2023-07-22T11:41:26;5.13;;;3.20;;
63536;SDS011;49686;51.880;5.632;2023-07-22T11:43:56;4.07;;;2.47;;
63536;SDS011;49686;51.880;5.632;2023-07-22T11:46:23;4.38;;;2.70;;
63536;SDS011;49686;51.880;5.632;2023-07-22T11:48:50;4.93;;;2.95;;
63536;SDS011;49686;51.880;5.632;2023-07-22T11:51:18;4.55;;;2.35;;
63536;SDS011;49686;51.880;5.632;2023-07-22T11:53:48;4.00;;;2.22;;
63536;SDS011;49686;51.880;5.632;2023-07-22T11:56:20;3.67;;;2.20;;
63536;SDS011;49686;51.880;5.632;2023-07-22T11:58:50;5.18;;;2.15;;
63536;SDS011;49686;51.880;5.632;2023-07-22T12:01:18;3.88;;;1.98;;
63536;SDS011;49686;51.880;5.632;2023-07-22T12:03:45;3.53;;;1.95;;
63536;SDS011;49686;51.880;5.632;2023-07-22T12:06:12;5.13;;;2.10;;
63536;SDS011;49686;51.880;5.632;2023-07-22T12:08:43;2.40;;;1.83;;
63536;SDS011;49686;51.880;5.632;2023-07-22T12:11:17;6.03;;;2.22;;
63536;SDS011;49686;51.880;5.632;2023-07-22T12:13:44;3.65;;;1.92;;
63536;SDS011;49686;51.880;5.632;2023-07-22T12:16:12;3.85;;;2.13;;
63536;SDS011;49686;51.880;5.632;2023-07-22T12:18:42;2.33;;;1.90;;
63536;SDS011;49686;51.880;5.632;2023-07-22T12:21:09;3.47;;;1.83;;
63536;SDS011;49686;51.880;5.632;2023-07-22T12:23:37;4.65;;;2.00;;
63536;SDS011;49686;51.880;5.632;2023-07-22T12:26:04;4.82;;;2.80;;
63536;SDS011;49686;51.880;5.632;2023-07-22T12:28:33;3.78;;;2.00;;
63536;SDS011;49686;51.880;5.632;2023-07-22T12:30:59;2.55;;;1.45;;
63536;SDS011;49686;51.880;5.632;2023-07-22T12:33:26;3.72;;;2.30;;
63536;SDS011;49686;51.880;5.632;2023-07-22T12:35:54;7.07;;;3.08;;
63536;SDS011;49686;51.880;5.632;2023-07-22T12:38:21;5.18;;;2.70;;
63536;SDS011;49686;51.880;5.632;2023-07-22T12:40:49;8.98;;;3.03;;
63536;SDS011;49686;51.880;5.632;2023-07-22T12:43:16;5.60;;;2.90;;
63536;SDS011;49686;51.880;5.632;2023-07-22T12:45:44;7.07;;;3.15;;
63536;SDS011;49686;51.880;5.632;2023-07-22T12:48:11;6.28;;;2.85;;
63536;SDS011;49686;51.880;5.632;2023-07-22T12:50:38;5.55;;;2.72;;
63536;SDS011;49686;51.880;5.632;2023-07-22T12:53:04;7.03;;;2.97;;
63536;SDS011;49686;51.880;5.632;2023-07-22T12:55:31;5.50;;;2.30;;
63536;SDS011;49686;51.880;5.632;2023-07-22T12:57:58;4.80;;;2.30;;
63536;SDS011;49686;51.880;5.632;2023-07-22T13:00:25;7.45;;;2.50;;
63536;SDS011;49686;51.880;5.632;2023-07-22T13:02:53;5.13;;;2.78;;
63536;SDS011;49686;51.880;5.632;2023-07-22T13:05:20;4.05;;;2.13;;
63536;SDS011;49686;51.880;5.632;2023-07-22T13:07:47;9.80;;;2.90;;
63536;SDS011;49686;51.880;5.632;2023-07-22T13:10:14;6.10;;;2.78;;
63536;SDS011;49686;51.880;5.632;2023-07-22T13:12:41;5.00;;;2.58;;
63536;SDS011;49686;51.880;5.632;2023-07-22T13:15:08;7.22;;;2.70;;
63536;SDS011;49686;51.880;5.632;2023-07-22T13:17:35;5.43;;;2.50;;
63536;SDS011;49686;51.880;5.632;2023-07-22T13:20:04;5.30;;;2.92;;
63536;SDS011;49686;51.880;5.632;2023-07-22T13:22:32;5.45;;;2.80;;
63536;SDS011;49686;51.880;5.632;2023-07-22T13:24:59;3.92;;;2.30;;
63536;SDS011;49686;51.880;5.632;2023-07-22T13:27:25;5.53;;;2.08;;
63536;SDS011;49686;51.880;5.632;2023-07-22T13:29:52;4.88;;;2.63;;
63536;SDS011;49686;51.880;5.632;2023-07-22T13:32:19;4.10;;;2.50;;
63536;SDS011;49686;51.880;5.632;2023-07-22T13:34:46;5.78;;;2.90;;
63536;SDS011;49686;51.880;5.632;2023-07-22T13:37:15;4.38;;;2.90;;
63536;SDS011;49686;51.880;5.632;2023-07-22T13:39:41;6.50;;;3.00;;
63536;SDS011;49686;51.880;5.632;2023-07-22T13:42:08;5.28;;;2.80;;
63536;SDS011;49686;51.880;5.632;2023-07-22T13:44:35;4.13;;;2.83;;
63536;SDS011;49686;51.880;5.632;2023-07-22T13:47:05;5.43;;;3.42;;
63536;SDS011;49686;51.880;5.632;2023-07-22T13:49:32;6.28;;;3.15;;
63536;SDS011;49686;51.880;5.632;2023-07-22T13:51:59;7.03;;;3.60;;
63536;SDS011;49686;51.880;5.632;2023-07-22T13:54:27;6.97;;;3.88;;
63536;SDS011;49686;51.880;5.632;2023-07-22T13:56:54;6.07;;;3.50;;
63536;SDS011;49686;51.880;5.632;2023-07-22T13:59:21;7.72;;;3.20;;
63536;SDS011;49686;51.880;5.632;2023-07-22T14:01:47;7.20;;;3.53;;
63536;SDS011;49686;51.880;5.632;2023-07-22T14:04:14;8.68;;;3.75;;
63536;SDS011;49686;51.880;5.632;2023-07-22T14:06:41;7.85;;;4.22;;
63536;SDS011;49686;51.880;5.632;2023-07-22T14:09:08;4.82;;;3.40;;
63536;SDS011;49686;51.880;5.632;2023-07-22T14:11:36;7.57;;;3.13;;
63536;SDS011;49686;51.880;5.632;2023-07-22T14:14:06;7.55;;;3.47;;
63536;SDS011;49686;51.880;5.632;2023-07-22T14:16:33;4.68;;;2.45;;
63536;SDS011;49686;51.880;5.632;2023-07-22T14:18:59;6.38;;;2.40;;
63536;SDS011;49686;51.880;5.632;2023-07-22T14:21:26;7.05;;;2.90;;
63536;SDS011;49686;51.880;5.632;2023-07-22T14:23:54;6.30;;;2.50;;
63536;SDS011;49686;51.880;5.632;2023-07-22T14:26:20;5.00;;;2.72;;
63536;SDS011;49686;51.880;5.632;2023-07-22T14:28:49;7.07;;;2.20;;
63536;SDS011;49686;51.880;5.632;2023-07-22T14:31:15;3.38;;;1.92;;
63536;SDS011;49686;51.880;5.632;2023-07-22T14:33:42;5.38;;;1.92;;
63536;SDS011;49686;51.880;5.632;2023-07-22T14:36:09;4.43;;;1.98;;
63536;SDS011;49686;51.880;5.632;2023-07-22T14:38:36;5.38;;;2.80;;
63536;SDS011;49686;51.880;5.632;2023-07-22T14:41:03;3.70;;;2.00;;
63536;SDS011;49686;51.880;5.632;2023-07-22T14:43:30;5.22;;;2.17;;
63536;SDS011;49686;51.880;5.632;2023-07-22T14:45:58;5.90;;;2.20;;
63536;SDS011;49686;51.880;5.632;2023-07-22T14:48:24;5.00;;;2.20;;